sensor_id;sensor_type;location;lat;lon;timestamp;P1;durP1;ratioP1;P2;durP2;ratioP2
12635;SDS011;6383;50.830;7.210;2023-02-28T00:01:25;6.07;;;2.75;;
12635;SDS011;6383;50.830;7.210;2023-02-28T00:03:56;7.32;;;3.35;;
12635;SDS011;6383;50.830;7.210;2023-02-28T00:06:25;6.55;;;2.95;;
12635;SDS011;6383;50.830;7.210;2023-02-28T00:08:53;3.95;;;2.50;;
12635;SDS011;6383;50.830;7.210;2023-02-28T00:11:22;5.68;;;2.63;;
12635;SDS011;6383;50.830;7.210;2023-02-28T00:13:50;7.32;;;2.15;;
12635;SDS011;6383;50.830;7.210;2023-02-28T00:16:19;3.78;;;2.33;;
12635;SDS011;6383;50.830;7.210;2023-02-28T00:18:49;4.90;;;2.72;;
12635;SDS011;6383;50.830;7.210;2023-02-28T00:21:19;6.15;;;2.50;;
12635;SDS011;6383;50.830;7.210;2023-02-28T00:23:46;4.05;;;2.83;;
12635;SDS011;6383;50.830;7.210;2023-02-28T00:26:14;10.25;;;5.68;;
12635;SDS011;6383;50.830;7.210;2023-02-28T00:28:43;13.55;;;8.57;;
12635;SDS011;6383;50.830;7.210;2023-02-28T00:31:11;15.35;;;7.53;;
12635;SDS011;6383;50.830;7.210;2023-02-28T00:33:39;13.30;;;7.65;;
12635;SDS011;6383;50.830;7.210;2023-02-28T00:36:08;8.13;;;5.28;;
12635;SDS011;6383;50.830;7.210;2023-02-28T00:38:40;5.95;;;4.10;;
12635;SDS011;6383;50.830;7.210;2023-02-28T00:41:09;6.75;;;3.60;;
12635;SDS011;6383;50.830;7.210;2023-02-28T00:43:38;5.97;;;2.63;;
12635;SDS011;6383;50.830;7.210;2023-02-28T00:46:08;3.00;;;2.10;;
12635;SDS011;6383;50.830;7.210;2023-02-28T00:48:35;6.25;;;2.60;;
12635;SDS011;6383;50.830;7.210;2023-02-28T00:51:03;3.58;;;1.85;;
12635;SDS011;6383;50.830;7.210;2023-02-28T00:53:31;4.22;;;2.30;;
12635;SDS011;6383;50.830;7.210;2023-02-28T00:56:01;3.47;;;2.67;;
12635;SDS011;6383;50.830;7.210;2023-02-28T00:58:29;4.70;;;2.10;;
12635;SDS011;6383;50.830;7.210;2023-02-28T01:00:57;4.63;;;1.92;;
12635;SDS011;6383;50.830;7.210;2023-02-28T01:03:25;7.95;;;2.63;;
12635;SDS011;6383;50.830;7.210;2023-02-28T01:05:53;3.47;;;1.98;;
12635;SDS011;6383;50.830;7.210;2023-02-28T01:08:21;4.32;;;2.50;;
12635;SDS011;6383;50.830;7.210;2023-02-28T01:10:50;2.35;;;1.83;;
12635;SDS011;6383;50.830;7.210;2023-02-28T01:13:19;5.03;;;2.60;;
12635;SDS011;6383;50.830;7.210;2023-02-28T01:15:50;3.80;;;1.90;;
12635;SDS011;6383;50.830;7.210;2023-02-28T01:18:20;2.42;;;2.20;;
12635;SDS011;6383;50.830;7.210;2023-02-28T01:20:50;3.75;;;2.10;;
12635;SDS011;6383;50.830;7.210;2023-02-28T01:23:18;3.65;;;2.22;;
12635;SDS011;6383;50.830;7.210;2023-02-28T01:25:48;4.40;;;2.13;;
12635;SDS011;6383;50.830;7.210;2023-02-28T01:28:16;2.92;;;2.33;;
12635;SDS011;6383;50.830;7.210;2023-02-28T01:30:48;5.07;;;2.55;;
12635;SDS011;6383;50.830;7.210;2023-02-28T01:33:16;4.03;;;3.50;;
12635;SDS011;6383;50.830;7.210;2023-02-28T01:35:44;5.75;;;3.00;;
12635;SDS011;6383;50.830;7.210;2023-02-28T01:38:14;5.90;;;3.47;;
12635;SDS011;6383;50.830;7.210;2023-02-28T01:40:42;7.00;;;3.65;;
12635;SDS011;6383;50.830;7.210;2023-02-28T01:43:11;6.60;;;3.65;;
12635;SDS011;6383;50.830;7.210;2023-02-28T01:45:49;5.00;;;3.22;;
12635;SDS011;6383;50.830;7.210;2023-02-28T01:48:18;7.43;;;4.50;;
12635;SDS011;6383;50.830;7.210;2023-02-28T01:50:52;5.55;;;3.60;;
12635;SDS011;6383;50.830;7.210;2023-02-28T01:53:24;5.13;;;3.33;;
12635;SDS011;6383;50.830;7.210;2023-02-28T01:55:58;8.23;;;4.25;;
12635;SDS011;6383;50.830;7.210;2023-02-28T01:58:28;7.88;;;3.35;;
12635;SDS011;6383;50.830;7.210;2023-02-28T02:00:59;7.43;;;3.78;;
12635;SDS011;6383;50.830;7.210;2023-02-28T02:03:29;4.47;;;2.88;;
12635;SDS011;6383;50.830;7.210;2023-02-28T02:05:59;4.35;;;2.92;;
12635;SDS011;6383;50.830;7.210;2023-02-28T02:08:28;6.55;;;3.17;;
12635;SDS011;6383;50.830;7.210;2023-02-28T02:10:58;5.40;;;2.70;;
12635;SDS011;6383;50.830;7.210;2023-02-28T02:13:37;5.70;;;2.67;;
12635;SDS011;6383;50.830;7.210;2023-02-28T02:16:20;4.53;;;3.30;;
12635;SDS011;6383;50.830;7.210;2023-02-28T02:18:57;5.90;;;3.65;;
12635;SDS011;6383;50.830;7.210;2023-02-28T02:24:50;9.40;;;3.47;;
12635;SDS011;6383;50.830;7.210;2023-02-28T02:27:39;5.72;;;2.70;;
12635;SDS011;6383;50.830;7.210;2023-02-28T02:30:33;4.57;;;2.90;;
12635;SDS011;6383;50.830;7.210;2023-02-28T02:36:21;6.50;;;2.50;;
12635;SDS011;6383;50.830;7.210;2023-02-28T02:38:55;5.65;;;3.28;;
12635;SDS011;6383;50.830;7.210;2023-02-28T02:41:34;3.80;;;2.22;;
12635;SDS011;6383;50.830;7.210;2023-02-28T02:44:06;5.68;;;3.00;;
12635;SDS011;6383;50.830;7.210;2023-02-28T02:46:42;5.63;;;3.10;;
12635;SDS011;6383;50.830;7.210;2023-02-28T02:49:12;4.03;;;2.72;;
12635;SDS011;6383;50.830;7.210;2023-02-28T02:51:46;2.55;;;2.35;;
12635;SDS011;6383;50.830;7.210;2023-02-28T02:54:16;6.30;;;2.30;;
12635;SDS011;6383;50.830;7.210;2023-02-28T02:56:47;2.08;;;1.85;;
12635;SDS011;6383;50.830;7.210;2023-02-28T02:59:18;2.45;;;2.15;;
12635;SDS011;6383;50.830;7.210;2023-02-28T03:01:50;2.25;;;1.90;;
12635;SDS011;6383;50.830;7.210;2023-02-28T03:04:22;3.55;;;1.88;;
12635;SDS011;6383;50.830;7.210;2023-02-28T03:06:52;3.08;;;2.42;;
12635;SDS011;6383;50.830;7.210;2023-02-28T03:09:21;3.50;;;2.00;;
12635;SDS011;6383;50.830;7.210;2023-02-28T03:11:49;2.92;;;2.08;;
12635;SDS011;6383;50.830;7.210;2023-02-28T03:14:26;5.45;;;2.25;;
12635;SDS011;6383;50.830;7.210;2023-02-28T03:17:11;5.45;;;2.53;;
12635;SDS011;6383;50.830;7.210;2023-02-28T03:19:52;2.92;;;2.20;;
12635;SDS011;6383;50.830;7.210;2023-02-28T03:22:45;3.85;;;2.72;;
12635;SDS011;6383;50.830;7.210;2023-02-28T03:25:21;6.07;;;3.17;;
12635;SDS011;6383;50.830;7.210;2023-02-28T03:28:01;3.20;;;2.08;;
12635;SDS011;6383;50.830;7.210;2023-02-28T03:30:36;3.55;;;2.53;;
12635;SDS011;6383;50.830;7.210;2023-02-28T03:33:10;4.75;;;1.88;;
12635;SDS011;6383;50.830;7.210;2023-02-28T03:35:45;2.73;;;2.23;;
12635;SDS011;6383;50.830;7.210;2023-02-28T03:38:22;2.53;;;2.05;;
12635;SDS011;6383;50.830;7.210;2023-02-28T03:40:58;2.47;;;2.00;;
12635;SDS011;6383;50.830;7.210;2023-02-28T03:43:32;3.35;;;2.08;;
12635;SDS011;6383;50.830;7.210;2023-02-28T03:46:06;2.83;;;2.20;;
12635;SDS011;6383;50.830;7.210;2023-02-28T03:48:40;4.40;;;3.07;;
12635;SDS011;6383;50.830;7.210;2023-02-28T03:51:12;10.38;;;5.32;;
12635;SDS011;6383;50.830;7.210;2023-02-28T03:53:45;25.25;;;11.93;;
12635;SDS011;6383;50.830;7.210;2023-02-28T03:56:18;19.00;;;9.65;;
12635;SDS011;6383;50.830;7.210;2023-02-28T03:58:49;4.70;;;3.20;;
12635;SDS011;6383;50.830;7.210;2023-02-28T04:01:23;3.35;;;2.25;;
12635;SDS011;6383;50.830;7.210;2023-02-28T04:03:56;5.15;;;2.25;;
12635;SDS011;6383;50.830;7.210;2023-02-28T04:06:24;4.63;;;2.28;;
12635;SDS011;6383;50.830;7.210;2023-02-28T04:08:53;3.70;;;2.05;;
12635;SDS011;6383;50.830;7.210;2023-02-28T04:11:23;5.97;;;2.13;;
12635;SDS011;6383;50.830;7.210;2023-02-28T04:13:56;2.17;;;1.98;;
12635;SDS011;6383;50.830;7.210;2023-02-28T04:16:24;2.78;;;2.28;;
12635;SDS011;6383;50.830;7.210;2023-02-28T04:18:52;2.75;;;2.13;;
12635;SDS011;6383;50.830;7.210;2023-02-28T04:21:20;2.38;;;1.95;;
12635;SDS011;6383;50.830;7.210;2023-02-28T04:23:48;5.40;;;2.85;;
12635;SDS011;6383;50.830;7.210;2023-02-28T04:26:17;5.63;;;2.78;;
12635;SDS011;6383;50.830;7.210;2023-02-28T04:28:46;3.92;;;1.98;;
12635;SDS011;6383;50.830;7.210;2023-02-28T04:31:14;2.83;;;2.38;;
12635;SDS011;6383;50.830;7.210;2023-02-28T04:33:42;10.40;;;3.60;;
12635;SDS011;6383;50.830;7.210;2023-02-28T04:36:10;3.08;;;1.95;;
12635;SDS011;6383;50.830;7.210;2023-02-28T04:38:40;5.50;;;2.42;;
12635;SDS011;6383;50.830;7.210;2023-02-28T04:41:07;2.40;;;1.85;;
12635;SDS011;6383;50.830;7.210;2023-02-28T04:43:36;3.47;;;1.80;;
12635;SDS011;6383;50.830;7.210;2023-02-28T04:46:04;2.25;;;2.00;;
12635;SDS011;6383;50.830;7.210;2023-02-28T04:48:34;2.50;;;1.85;;
12635;SDS011;6383;50.830;7.210;2023-02-28T04:51:06;1.77;;;1.67;;
12635;SDS011;6383;50.830;7.210;2023-02-28T04:53:36;3.40;;;2.30;;
12635;SDS011;6383;50.830;7.210;2023-02-28T04:56:06;1.92;;;1.83;;
12635;SDS011;6383;50.830;7.210;2023-02-28T04:58:37;1.80;;;1.63;;
12635;SDS011;6383;50.830;7.210;2023-02-28T05:01:07;3.10;;;2.20;;
12635;SDS011;6383;50.830;7.210;2023-02-28T05:03:44;1.83;;;1.63;;
12635;SDS011;6383;50.830;7.210;2023-02-28T05:06:13;2.00;;;1.80;;
12635;SDS011;6383;50.830;7.210;2023-02-28T05:08:42;2.42;;;2.05;;
12635;SDS011;6383;50.830;7.210;2023-02-28T05:11:13;2.65;;;2.20;;
12635;SDS011;6383;50.830;7.210;2023-02-28T05:13:46;2.95;;;2.38;;
12635;SDS011;6383;50.830;7.210;2023-02-28T05:16:13;1.88;;;1.77;;
12635;SDS011;6383;50.830;7.210;2023-02-28T05:18:41;3.15;;;2.15;;
12635;SDS011;6383;50.830;7.210;2023-02-28T05:24:03;4.50;;;3.75;;
12635;SDS011;6383;50.830;7.210;2023-02-28T05:26:34;3.10;;;2.17;;
12635;SDS011;6383;50.830;7.210;2023-02-28T05:29:05;3.10;;;2.33;;
12635;SDS011;6383;50.830;7.210;2023-02-28T05:31:34;1.98;;;1.88;;
12635;SDS011;6383;50.830;7.210;2023-02-28T05:34:03;2.20;;;2.10;;
12635;SDS011;6383;50.830;7.210;2023-02-28T05:36:32;3.55;;;2.40;;
12635;SDS011;6383;50.830;7.210;2023-02-28T05:39:01;2.38;;;2.08;;
12635;SDS011;6383;50.830;7.210;2023-02-28T05:41:30;3.72;;;2.20;;
12635;SDS011;6383;50.830;7.210;2023-02-28T05:43:58;3.92;;;2.17;;
12635;SDS011;6383;50.830;7.210;2023-02-28T05:46:28;2.50;;;2.30;;
12635;SDS011;6383;50.830;7.210;2023-02-28T05:48:56;2.30;;;2.10;;
12635;SDS011;6383;50.830;7.210;2023-02-28T05:51:27;5.38;;;2.53;;
12635;SDS011;6383;50.830;7.210;2023-02-28T05:53:58;2.67;;;2.45;;
12635;SDS011;6383;50.830;7.210;2023-02-28T05:56:28;3.95;;;3.60;;
12635;SDS011;6383;50.830;7.210;2023-02-28T05:58:57;9.18;;;4.10;;
12635;SDS011;6383;50.830;7.210;2023-02-28T06:01:32;4.45;;;4.13;;
12635;SDS011;6383;50.830;7.210;2023-02-28T06:04:03;5.72;;;4.05;;
12635;SDS011;6383;50.830;7.210;2023-02-28T06:06:34;7.63;;;4.43;;
12635;SDS011;6383;50.830;7.210;2023-02-28T06:09:04;5.53;;;4.15;;
12635;SDS011;6383;50.830;7.210;2023-02-28T06:11:32;6.85;;;4.50;;
12635;SDS011;6383;50.830;7.210;2023-02-28T06:14:00;5.97;;;4.30;;
12635;SDS011;6383;50.830;7.210;2023-02-28T06:16:29;4.45;;;4.05;;
12635;SDS011;6383;50.830;7.210;2023-02-28T06:19:01;6.97;;;3.45;;
12635;SDS011;6383;50.830;7.210;2023-02-28T06:21:30;3.75;;;2.53;;
12635;SDS011;6383;50.830;7.210;2023-02-28T06:24:00;3.28;;;3.00;;
12635;SDS011;6383;50.830;7.210;2023-02-28T06:26:29;4.75;;;3.25;;
12635;SDS011;6383;50.830;7.210;2023-02-28T06:28:56;5.78;;;4.75;;
12635;SDS011;6383;50.830;7.210;2023-02-28T06:31:25;5.90;;;4.95;;
12635;SDS011;6383;50.830;7.210;2023-02-28T06:33:55;4.82;;;4.32;;
12635;SDS011;6383;50.830;7.210;2023-02-28T06:36:24;7.35;;;4.63;;
12635;SDS011;6383;50.830;7.210;2023-02-28T06:38:54;4.05;;;3.70;;
12635;SDS011;6383;50.830;7.210;2023-02-28T06:41:24;6.43;;;3.47;;
12635;SDS011;6383;50.830;7.210;2023-02-28T06:43:53;3.97;;;3.00;;
12635;SDS011;6383;50.830;7.210;2023-02-28T06:46:22;5.38;;;3.13;;
12635;SDS011;6383;50.830;7.210;2023-02-28T06:48:52;4.05;;;3.08;;
12635;SDS011;6383;50.830;7.210;2023-02-28T06:51:20;4.13;;;3.22;;
12635;SDS011;6383;50.830;7.210;2023-02-28T06:53:53;2.63;;;2.42;;
12635;SDS011;6383;50.830;7.210;2023-02-28T06:56:21;5.13;;;3.17;;
12635;SDS011;6383;50.830;7.210;2023-02-28T06:58:49;4.50;;;2.25;;
12635;SDS011;6383;50.830;7.210;2023-02-28T07:01:20;3.67;;;3.38;;
12635;SDS011;6383;50.830;7.210;2023-02-28T07:03:50;6.47;;;4.65;;
12635;SDS011;6383;50.830;7.210;2023-02-28T07:06:20;23.15;;;11.10;;
12635;SDS011;6383;50.830;7.210;2023-02-28T07:08:49;14.23;;;8.02;;
12635;SDS011;6383;50.830;7.210;2023-02-28T07:11:18;11.70;;;7.00;;
12635;SDS011;6383;50.830;7.210;2023-02-28T07:13:47;11.98;;;6.03;;
12635;SDS011;6383;50.830;7.210;2023-02-28T07:16:15;4.70;;;3.28;;
12635;SDS011;6383;50.830;7.210;2023-02-28T07:18:44;5.45;;;2.80;;
12635;SDS011;6383;50.830;7.210;2023-02-28T07:21:13;3.03;;;2.53;;
12635;SDS011;6383;50.830;7.210;2023-02-28T07:23:41;4.45;;;3.20;;
12635;SDS011;6383;50.830;7.210;2023-02-28T07:26:10;6.07;;;3.20;;
12635;SDS011;6383;50.830;7.210;2023-02-28T07:28:43;7.35;;;4.53;;
12635;SDS011;6383;50.830;7.210;2023-02-28T07:31:14;2.90;;;2.60;;
12635;SDS011;6383;50.830;7.210;2023-02-28T07:33:44;3.60;;;2.28;;
12635;SDS011;6383;50.830;7.210;2023-02-28T07:36:13;4.45;;;2.47;;
12635;SDS011;6383;50.830;7.210;2023-02-28T07:38:45;3.33;;;2.55;;
12635;SDS011;6383;50.830;7.210;2023-02-28T07:41:21;3.47;;;2.33;;
12635;SDS011;6383;50.830;7.210;2023-02-28T07:43:52;3.55;;;2.60;;
12635;SDS011;6383;50.830;7.210;2023-02-28T07:46:22;4.68;;;2.47;;
12635;SDS011;6383;50.830;7.210;2023-02-28T07:48:51;3.03;;;2.15;;
12635;SDS011;6383;50.830;7.210;2023-02-28T07:51:22;3.67;;;2.70;;
12635;SDS011;6383;50.830;7.210;2023-02-28T07:53:51;2.58;;;1.92;;
12635;SDS011;6383;50.830;7.210;2023-02-28T07:56:20;2.22;;;1.90;;
12635;SDS011;6383;50.830;7.210;2023-02-28T07:58:49;4.95;;;2.67;;
12635;SDS011;6383;50.830;7.210;2023-02-28T08:01:18;4.40;;;2.17;;
12635;SDS011;6383;50.830;7.210;2023-02-28T08:03:46;2.50;;;1.70;;
12635;SDS011;6383;50.830;7.210;2023-02-28T08:06:18;2.42;;;1.95;;
12635;SDS011;6383;50.830;7.210;2023-02-28T08:08:47;2.28;;;1.52;;
12635;SDS011;6383;50.830;7.210;2023-02-28T08:11:17;3.10;;;1.58;;
12635;SDS011;6383;50.830;7.210;2023-02-28T08:13:45;1.67;;;1.52;;
12635;SDS011;6383;50.830;7.210;2023-02-28T08:16:13;1.40;;;1.30;;
12635;SDS011;6383;50.830;7.210;2023-02-28T08:18:44;2.40;;;1.90;;
12635;SDS011;6383;50.830;7.210;2023-02-28T08:21:13;2.70;;;1.92;;
12635;SDS011;6383;50.830;7.210;2023-02-28T08:23:41;2.20;;;1.92;;
12635;SDS011;6383;50.830;7.210;2023-02-28T08:26:13;2.13;;;1.65;;
12635;SDS011;6383;50.830;7.210;2023-02-28T08:28:42;1.65;;;1.55;;
12635;SDS011;6383;50.830;7.210;2023-02-28T08:31:12;2.17;;;1.90;;
12635;SDS011;6383;50.830;7.210;2023-02-28T08:33:42;1.90;;;1.40;;
12635;SDS011;6383;50.830;7.210;2023-02-28T08:36:14;1.63;;;1.52;;
12635;SDS011;6383;50.830;7.210;2023-02-28T08:38:42;2.17;;;1.65;;
12635;SDS011;6383;50.830;7.210;2023-02-28T08:41:11;2.22;;;2.03;;
12635;SDS011;6383;50.830;7.210;2023-02-28T08:43:41;1.67;;;1.40;;
12635;SDS011;6383;50.830;7.210;2023-02-28T08:46:11;2.70;;;1.77;;
12635;SDS011;6383;50.830;7.210;2023-02-28T08:48:40;2.20;;;1.55;;
12635;SDS011;6383;50.830;7.210;2023-02-28T08:51:12;2.67;;;1.80;;
12635;SDS011;6383;50.830;7.210;2023-02-28T08:53:44;4.00;;;2.63;;
12635;SDS011;6383;50.830;7.210;2023-02-28T08:56:13;2.50;;;1.55;;
12635;SDS011;6383;50.830;7.210;2023-02-28T08:58:43;2.47;;;1.50;;
12635;SDS011;6383;50.830;7.210;2023-02-28T09:01:13;1.42;;;1.33;;
12635;SDS011;6383;50.830;7.210;2023-02-28T09:03:42;2.78;;;1.52;;
12635;SDS011;6383;50.830;7.210;2023-02-28T09:06:14;3.10;;;1.50;;
12635;SDS011;6383;50.830;7.210;2023-02-28T09:08:43;1.35;;;1.25;;
12635;SDS011;6383;50.830;7.210;2023-02-28T09:11:12;1.83;;;1.52;;
12635;SDS011;6383;50.830;7.210;2023-02-28T09:13:41;2.90;;;1.77;;
12635;SDS011;6383;50.830;7.210;2023-02-28T09:16:10;1.65;;;1.55;;
12635;SDS011;6383;50.830;7.210;2023-02-28T09:18:41;1.92;;;1.73;;
12635;SDS011;6383;50.830;7.210;2023-02-28T09:21:13;2.08;;;1.52;;
12635;SDS011;6383;50.830;7.210;2023-02-28T09:23:45;1.73;;;1.55;;
12635;SDS011;6383;50.830;7.210;2023-02-28T09:26:14;2.58;;;1.80;;
12635;SDS011;6383;50.830;7.210;2023-02-28T09:28:44;1.65;;;1.55;;
12635;SDS011;6383;50.830;7.210;2023-02-28T09:31:12;1.50;;;1.40;;
12635;SDS011;6383;50.830;7.210;2023-02-28T09:33:42;1.58;;;1.48;;
12635;SDS011;6383;50.830;7.210;2023-02-28T09:36:11;2.10;;;1.92;;
12635;SDS011;6383;50.830;7.210;2023-02-28T09:38:41;2.60;;;2.25;;
12635;SDS011;6383;50.830;7.210;2023-02-28T09:41:11;1.60;;;1.50;;
12635;SDS011;6383;50.830;7.210;2023-02-28T09:43:44;1.98;;;1.85;;
12635;SDS011;6383;50.830;7.210;2023-02-28T09:49:02;1.27;;;1.17;;
12635;SDS011;6383;50.830;7.210;2023-02-28T09:51:36;4.70;;;1.98;;
12635;SDS011;6383;50.830;7.210;2023-02-28T09:54:14;2.35;;;1.52;;
12635;SDS011;6383;50.830;7.210;2023-02-28T09:56:48;2.03;;;1.50;;
12635;SDS011;6383;50.830;7.210;2023-02-28T09:59:25;1.58;;;1.48;;
12635;SDS011;6383;50.830;7.210;2023-02-28T10:02:02;7.03;;;1.60;;
12635;SDS011;6383;50.830;7.210;2023-02-28T10:04:42;3.85;;;1.50;;
12635;SDS011;6383;50.830;7.210;2023-02-28T10:07:21;1.60;;;1.50;;
12635;SDS011;6383;50.830;7.210;2023-02-28T10:10:14;1.52;;;1.40;;
12635;SDS011;6383;50.830;7.210;2023-02-28T10:12:48;3.30;;;1.27;;
12635;SDS011;6383;50.830;7.210;2023-02-28T10:15:21;2.70;;;1.20;;
12635;SDS011;6383;50.830;7.210;2023-02-28T10:17:54;1.83;;;1.27;;
12635;SDS011;6383;50.830;7.210;2023-02-28T10:20:26;3.75;;;1.25;;
12635;SDS011;6383;50.830;7.210;2023-02-28T10:22:58;1.92;;;1.67;;
12635;SDS011;6383;50.830;7.210;2023-02-28T10:25:36;2.88;;;1.63;;
12635;SDS011;6383;50.830;7.210;2023-02-28T10:28:09;2.22;;;1.58;;
12635;SDS011;6383;50.830;7.210;2023-02-28T10:30:40;1.40;;;1.30;;
12635;SDS011;6383;50.830;7.210;2023-02-28T10:33:15;2.13;;;1.70;;
12635;SDS011;6383;50.830;7.210;2023-02-28T10:35:48;1.65;;;1.55;;
12635;SDS011;6383;50.830;7.210;2023-02-28T10:38:19;1.23;;;1.13;;
12635;SDS011;6383;50.830;7.210;2023-02-28T10:40:52;2.38;;;1.95;;
12635;SDS011;6383;50.830;7.210;2023-02-28T10:43:32;2.45;;;1.45;;
12635;SDS011;6383;50.830;7.210;2023-02-28T10:46:02;2.70;;;1.90;;
12635;SDS011;6383;50.830;7.210;2023-02-28T10:48:35;1.83;;;1.67;;
12635;SDS011;6383;50.830;7.210;2023-02-28T10:51:06;2.97;;;2.35;;
12635;SDS011;6383;50.830;7.210;2023-02-28T10:53:44;1.42;;;1.33;;
12635;SDS011;6383;50.830;7.210;2023-02-28T10:56:18;2.30;;;1.52;;
12635;SDS011;6383;50.830;7.210;2023-02-28T10:58:51;3.08;;;1.30;;
12635;SDS011;6383;50.830;7.210;2023-02-28T11:01:23;2.20;;;1.60;;
12635;SDS011;6383;50.830;7.210;2023-02-28T11:03:52;1.98;;;1.63;;
12635;SDS011;6383;50.830;7.210;2023-02-28T11:06:20;1.60;;;1.50;;
12635;SDS011;6383;50.830;7.210;2023-02-28T11:08:51;2.35;;;1.65;;
12635;SDS011;6383;50.830;7.210;2023-02-28T11:11:23;2.17;;;1.70;;
12635;SDS011;6383;50.830;7.210;2023-02-28T11:13:53;3.38;;;2.03;;
12635;SDS011;6383;50.830;7.210;2023-02-28T11:16:31;2.30;;;2.10;;
12635;SDS011;6383;50.830;7.210;2023-02-28T11:19:01;2.00;;;1.90;;
12635;SDS011;6383;50.830;7.210;2023-02-28T11:21:33;3.55;;;2.55;;
12635;SDS011;6383;50.830;7.210;2023-02-28T11:24:12;5.50;;;2.70;;
12635;SDS011;6383;50.830;7.210;2023-02-28T11:26:49;2.40;;;2.28;;
12635;SDS011;6383;50.830;7.210;2023-02-28T11:29:19;2.53;;;2.28;;
12635;SDS011;6383;50.830;7.210;2023-02-28T11:32:11;2.53;;;2.22;;
12635;SDS011;6383;50.830;7.210;2023-02-28T11:34:44;2.35;;;2.25;;
12635;SDS011;6383;50.830;7.210;2023-02-28T11:37:14;2.28;;;1.90;;
12635;SDS011;6383;50.830;7.210;2023-02-28T11:39:43;2.22;;;2.03;;
12635;SDS011;6383;50.830;7.210;2023-02-28T11:42:27;2.05;;;1.90;;
12635;SDS011;6383;50.830;7.210;2023-02-28T11:45:11;1.92;;;1.83;;
12635;SDS011;6383;50.830;7.210;2023-02-28T11:47:47;2.22;;;1.98;;
12635;SDS011;6383;50.830;7.210;2023-02-28T11:50:22;1.83;;;1.73;;
12635;SDS011;6383;50.830;7.210;2023-02-28T11:53:02;1.92;;;1.70;;
12635;SDS011;6383;50.830;7.210;2023-02-28T11:55:39;2.78;;;2.17;;
12635;SDS011;6383;50.830;7.210;2023-02-28T12:00:54;2.40;;;1.38;;
12635;SDS011;6383;50.830;7.210;2023-02-28T12:03:35;2.33;;;1.58;;
12635;SDS011;6383;50.830;7.210;2023-02-28T12:06:16;2.25;;;2.15;;
12635;SDS011;6383;50.830;7.210;2023-02-28T12:09:00;3.05;;;1.70;;
12635;SDS011;6383;50.830;7.210;2023-02-28T12:11:40;1.75;;;1.65;;
12635;SDS011;6383;50.830;7.210;2023-02-28T12:14:35;1.95;;;1.65;;
12635;SDS011;6383;50.830;7.210;2023-02-28T12:17:21;3.78;;;2.13;;
12635;SDS011;6383;50.830;7.210;2023-02-28T12:20:02;2.60;;;2.08;;
12635;SDS011;6383;50.830;7.210;2023-02-28T12:22:40;3.15;;;1.85;;
12635;SDS011;6383;50.830;7.210;2023-02-28T12:25:24;3.00;;;1.60;;
12635;SDS011;6383;50.830;7.210;2023-02-28T12:28:16;2.75;;;2.05;;
12635;SDS011;6383;50.830;7.210;2023-02-28T12:30:53;1.73;;;1.63;;
12635;SDS011;6383;50.830;7.210;2023-02-28T12:33:24;1.60;;;1.50;;
12635;SDS011;6383;50.830;7.210;2023-02-28T12:35:58;1.92;;;1.63;;
12635;SDS011;6383;50.830;7.210;2023-02-28T12:38:31;4.03;;;1.67;;
12635;SDS011;6383;50.830;7.210;2023-02-28T12:41:04;1.67;;;1.58;;
12635;SDS011;6383;50.830;7.210;2023-02-28T12:46:14;2.33;;;2.10;;
12635;SDS011;6383;50.830;7.210;2023-02-28T12:48:48;2.45;;;1.90;;
12635;SDS011;6383;50.830;7.210;2023-02-28T12:53:57;3.65;;;2.30;;
12635;SDS011;6383;50.830;7.210;2023-02-28T12:56:36;2.08;;;1.88;;
12635;SDS011;6383;50.830;7.210;2023-02-28T12:59:18;1.85;;;1.75;;
12635;SDS011;6383;50.830;7.210;2023-02-28T13:02:14;2.30;;;2.00;;
12635;SDS011;6383;50.830;7.210;2023-02-28T13:08:20;1.85;;;1.58;;
12635;SDS011;6383;50.830;7.210;2023-02-28T13:11:12;2.25;;;2.10;;
12635;SDS011;6383;50.830;7.210;2023-02-28T13:13:57;2.20;;;2.00;;
12635;SDS011;6383;50.830;7.210;2023-02-28T13:16:26;2.42;;;2.22;;
12635;SDS011;6383;50.830;7.210;2023-02-28T13:18:56;2.30;;;2.00;;
12635;SDS011;6383;50.830;7.210;2023-02-28T13:21:42;2.60;;;2.20;;
12635;SDS011;6383;50.830;7.210;2023-02-28T13:24:11;3.70;;;2.30;;
12635;SDS011;6383;50.830;7.210;2023-02-28T13:27:19;3.42;;;2.25;;
12635;SDS011;6383;50.830;7.210;2023-02-28T13:29:52;2.25;;;2.05;;
12635;SDS011;6383;50.830;7.210;2023-02-28T13:32:30;3.75;;;2.78;;
12635;SDS011;6383;50.830;7.210;2023-02-28T13:35:16;2.50;;;2.30;;
12635;SDS011;6383;50.830;7.210;2023-02-28T13:44:02;3.90;;;2.60;;
12635;SDS011;6383;50.830;7.210;2023-02-28T13:46:33;3.97;;;2.92;;
12635;SDS011;6383;50.830;7.210;2023-02-28T13:49:19;6.55;;;2.50;;
12635;SDS011;6383;50.830;7.210;2023-02-28T13:51:49;3.40;;;2.63;;
12635;SDS011;6383;50.830;7.210;2023-02-28T13:54:28;3.03;;;2.22;;
12635;SDS011;6383;50.830;7.210;2023-02-28T13:57:10;2.65;;;2.40;;
12635;SDS011;6383;50.830;7.210;2023-02-28T13:59:51;3.22;;;2.17;;
12635;SDS011;6383;50.830;7.210;2023-02-28T14:02:40;2.67;;;2.08;;
12635;SDS011;6383;50.830;7.210;2023-02-28T14:05:20;5.15;;;2.65;;
12635;SDS011;6383;50.830;7.210;2023-02-28T14:07:53;3.03;;;2.72;;
12635;SDS011;6383;50.830;7.210;2023-02-28T14:10:26;2.80;;;2.58;;
12635;SDS011;6383;50.830;7.210;2023-02-28T14:12:58;3.75;;;2.88;;
12635;SDS011;6383;50.830;7.210;2023-02-28T14:15:39;5.13;;;3.88;;
12635;SDS011;6383;50.830;7.210;2023-02-28T14:18:14;3.13;;;2.70;;
12635;SDS011;6383;50.830;7.210;2023-02-28T14:20:47;2.88;;;2.65;;
12635;SDS011;6383;50.830;7.210;2023-02-28T14:23:41;2.72;;;2.53;;
12635;SDS011;6383;50.830;7.210;2023-02-28T14:26:29;3.67;;;2.63;;
12635;SDS011;6383;50.830;7.210;2023-02-28T14:29:19;3.55;;;2.85;;
12635;SDS011;6383;50.830;7.210;2023-02-28T14:32:02;3.92;;;2.88;;
12635;SDS011;6383;50.830;7.210;2023-02-28T14:34:41;5.13;;;2.95;;
12635;SDS011;6383;50.830;7.210;2023-02-28T14:37:19;4.38;;;2.65;;
12635;SDS011;6383;50.830;7.210;2023-02-28T14:39:53;9.43;;;3.15;;
12635;SDS011;6383;50.830;7.210;2023-02-28T14:42:29;3.83;;;2.95;;
12635;SDS011;6383;50.830;7.210;2023-02-28T14:45:00;6.40;;;3.03;;
12635;SDS011;6383;50.830;7.210;2023-02-28T14:47:30;3.17;;;2.88;;
12635;SDS011;6383;50.830;7.210;2023-02-28T14:49:59;3.35;;;2.55;;
12635;SDS011;6383;50.830;7.210;2023-02-28T14:52:31;3.55;;;2.47;;
12635;SDS011;6383;50.830;7.210;2023-02-28T14:55:03;3.67;;;2.72;;
12635;SDS011;6383;50.830;7.210;2023-02-28T14:57:39;3.67;;;3.30;;
12635;SDS011;6383;50.830;7.210;2023-02-28T15:00:12;3.88;;;2.75;;
12635;SDS011;6383;50.830;7.210;2023-02-28T15:02:44;4.03;;;2.88;;
12635;SDS011;6383;50.830;7.210;2023-02-28T15:05:19;3.58;;;2.90;;
12635;SDS011;6383;50.830;7.210;2023-02-28T15:08:00;4.05;;;2.60;;
12635;SDS011;6383;50.830;7.210;2023-02-28T15:10:34;5.45;;;2.90;;
12635;SDS011;6383;50.830;7.210;2023-02-28T15:13:05;3.05;;;2.45;;
12635;SDS011;6383;50.830;7.210;2023-02-28T15:15:40;4.35;;;2.83;;
12635;SDS011;6383;50.830;7.210;2023-02-28T15:18:15;4.07;;;3.20;;
12635;SDS011;6383;50.830;7.210;2023-02-28T15:20:53;3.90;;;2.80;;
12635;SDS011;6383;50.830;7.210;2023-02-28T15:23:28;3.10;;;2.78;;
12635;SDS011;6383;50.830;7.210;2023-02-28T15:26:15;5.55;;;2.75;;
12635;SDS011;6383;50.830;7.210;2023-02-28T15:28:50;3.70;;;2.45;;
12635;SDS011;6383;50.830;7.210;2023-02-28T15:31:35;5.10;;;2.80;;
12635;SDS011;6383;50.830;7.210;2023-02-28T15:34:15;3.33;;;3.03;;
12635;SDS011;6383;50.830;7.210;2023-02-28T15:36:54;3.58;;;2.75;;
12635;SDS011;6383;50.830;7.210;2023-02-28T15:39:28;2.90;;;2.70;;
12635;SDS011;6383;50.830;7.210;2023-02-28T15:42:16;3.03;;;2.67;;
12635;SDS011;6383;50.830;7.210;2023-02-28T15:44:49;2.83;;;2.63;;
12635;SDS011;6383;50.830;7.210;2023-02-28T15:47:20;2.70;;;2.50;;
12635;SDS011;6383;50.830;7.210;2023-02-28T15:50:00;2.67;;;2.47;;
12635;SDS011;6383;50.830;7.210;2023-02-28T15:52:45;3.25;;;2.78;;
12635;SDS011;6383;50.830;7.210;2023-02-28T15:55:17;4.25;;;2.58;;
12635;SDS011;6383;50.830;7.210;2023-02-28T15:57:59;4.05;;;2.58;;
12635;SDS011;6383;50.830;7.210;2023-02-28T16:00:29;4.00;;;2.88;;
12635;SDS011;6383;50.830;7.210;2023-02-28T16:03:00;2.97;;;2.55;;
12635;SDS011;6383;50.830;7.210;2023-02-28T16:05:29;2.70;;;2.50;;